Tilden, Wisconsin
Current Conditions -  °F | °C
As of 9:56 PM on Sunday 25 Jan 2015 (Local Time) from KEAU Reporting Station
Clear Clear  
Wind Chill: 11°   Ceiling: Unl
Heat Index: 18°   Visibility: 10mi
Dew Point: 10°   Wind: 5mph
Humidity: 71%   Direction: 150°SSE
Pressure: 30.02"   Gusts: NA
Location:  44.9743°N, 91.4379°W
Report Text: KEAU 260356Z AUTO 15004KT 10SM CLR M08/M12 A3002 RMK AO2 SLP180 T10781122
Loading
Personal Weather Stations






























Interactive Weather Map New forecast layout! Learn more

10-Day Weather Forecast

Advertisements
Track Severe Weather on mobile